Time;durP1;ratioP1;P1;durP2;ratioP2;P2;SDS_P1;SDS_P2;PMS_P1;PMS_P2;Temp;Humidity;BMP_temperature;BMP_pressure;BME280_temperature;BME280_humidity;BME280_pressure;Samples;Min_cycle;Max_cycle;Signal;HPM_P1;HPM_P2
2021/01/14 00:02:21;;;;;;;1.58;0.45;;;;;10.90;101584.00;;;;5003076;28;20267;-73
2021/01/14 00:04:48;;;;;;;1.65;0.32;;;;;10.90;101578.00;;;;5008324;28;20209;-74
2021/01/14 00:07:14;;;;;;;0.77;0.30;;;;;10.90;101579.00;;;;5007547;28;21068;-73
2021/01/14 00:09:41;;;;;;;2.75;0.38;;;;;10.80;101576.00;;;;5008995;28;20200;-73
2021/01/14 00:12:09;;;;;;;0.77;0.30;;;;;10.80;101582.00;;;;5006914;28;20196;-73
2021/01/14 00:14:36;;;;;;;2.13;0.30;;;;;10.80;101567.00;;;;5005080;28;20543;-73
2021/01/14 00:17:03;;;;;;;3.42;0.40;;;;;10.80;101574.00;;;;5003876;28;20216;-73
2021/01/14 00:19:30;;;;;;;2.35;0.30;;;;;10.80;101569.00;;;;4999619;28;20212;-73
2021/01/14 00:21:57;;;;;;;3.25;0.80;;;;;10.80;101564.00;;;;5008435;28;20201;-73
2021/01/14 00:24:24;;;;;;;1.13;0.22;;;;;10.70;101570.00;;;;5008611;28;20220;-73
2021/01/14 00:26:50;;;;;;;3.05;0.63;;;;;10.70;101567.00;;;;4994626;28;20186;-74
2021/01/14 00:29:18;;;;;;;3.55;0.85;;;;;10.70;101574.00;;;;4988495;28;20213;-73
2021/01/14 00:31:45;;;;;;;3.97;0.52;;;;;10.70;101579.00;;;;4996062;28;20197;-73
2021/01/14 00:34:12;;;;;;;3.20;0.22;;;;;10.70;101571.00;;;;4997796;28;20198;-73
2021/01/14 00:39:20;;;;;;;2.03;0.45;;;;;10.70;101586.00;;;;5007486;28;20667;-73
2021/01/14 00:41:48;;;;;;;3.83;0.43;;;;;10.60;101583.00;;;;5007220;28;20243;-73
2021/01/14 00:44:14;;;;;;;2.15;0.25;;;;;10.60;101585.00;;;;5007347;28;20205;-73
2021/01/14 00:46:42;;;;;;;2.38;0.60;;;;;10.60;101578.00;;;;4998948;28;20203;-72
2021/01/14 00:49:09;;;;;;;1.85;0.35;;;;;10.60;101579.00;;;;5007346;28;20201;-73
2021/01/14 00:51:36;;;;;;;1.70;0.35;;;;;10.60;101580.00;;;;4994393;28;20206;-73
2021/01/14 00:54:03;;;;;;;2.83;0.60;;;;;10.60;101591.00;;;;4987847;28;20221;-73
2021/01/14 00:56:33;;;;;;;0.77;0.13;;;;;10.50;101583.00;;;;4994883;28;20200;-73
2021/01/14 00:59:01;;;;;;;5.03;0.60;;;;;10.50;101582.00;;;;5007297;28;20232;-72
2021/01/14 01:01:28;;;;;;;2.08;0.30;;;;;10.50;101582.00;;;;5009653;28;20316;-73
2021/01/14 01:03:56;;;;;;;0.68;0.40;;;;;10.40;101584.00;;;;5011400;28;20211;-73
2021/01/14 01:06:24;;;;;;;4.63;0.60;;;;;10.40;101582.00;;;;5011316;28;20224;-72
2021/01/14 01:08:51;;;;;;;2.10;0.75;;;;;10.40;101580.00;;;;4993481;28;20213;-73
2021/01/14 01:11:24;;;;;;;3.63;0.38;;;;;10.30;101580.00;;;;5001070;28;20205;-73
2021/01/14 01:13:51;;;;;;;1.98;0.38;;;;;10.40;101583.00;;;;5011007;28;20204;-74
2021/01/14 01:16:18;;;;;;;2.47;0.47;;;;;10.40;101592.00;;;;5003483;28;20550;-73
2021/01/14 01:18:45;;;;;;;0.85;0.17;;;;;10.30;101597.00;;;;4992002;28;20230;-72
2021/01/14 01:21:13;;;;;;;4.15;0.60;;;;;10.30;101593.00;;;;4994871;28;20241;-73
2021/01/14 01:23:40;;;;;;;1.67;0.25;;;;;10.30;101587.00;;;;5011293;28;20205;-73
2021/01/14 01:26:07;;;;;;;1.25;0.25;;;;;10.30;101590.00;;;;4994923;28;20638;-73
2021/01/14 01:28:34;;;;;;;1.00;0.30;;;;;10.30;101588.00;;;;5011463;28;20205;-73
2021/01/14 01:31:01;;;;;;;0.38;0.10;;;;;10.20;101593.00;;;;5003991;28;20210;-73
2021/01/14 01:33:28;;;;;;;1.63;0.50;;;;;10.20;101590.00;;;;5008590;28;20212;-73
2021/01/14 01:35:55;;;;;;;0.60;0.20;;;;;10.20;101591.00;;;;5010085;28;20598;-73
2021/01/14 01:38:23;;;;;;;0.40;0.17;;;;;10.20;101591.00;;;;4990984;28;20202;-72
2021/01/14 01:40:55;;;;;;;1.42;0.30;;;;;10.10;101590.00;;;;4991438;28;20236;-73
2021/01/14 01:43:22;;;;;;;2.25;0.28;;;;;10.10;101585.00;;;;5005716;28;20549;-72
2021/01/14 01:45:49;;;;;;;0.90;0.30;;;;;10.10;101595.00;;;;5007946;28;20197;-73
2021/01/14 01:48:16;;;;;;;0.45;0.17;;;;;10.10;101607.00;;;;5010404;28;20264;-73
2021/01/14 01:50:44;;;;;;;2.25;0.68;;;;;10.10;101612.00;;;;5010433;28;20209;-73
2021/01/14 01:53:11;;;;;;;1.95;0.30;;;;;10.10;101622.00;;;;5005937;28;20287;-73
2021/01/14 01:55:39;;;;;;;4.30;0.55;;;;;10.00;101633.00;;;;5008129;28;20596;-73
2021/01/14 01:58:06;;;;;;;0.47;0.10;;;;;10.00;101631.00;;;;5006839;28;20236;-73
2021/01/14 02:00:33;;;;;;;1.45;0.28;;;;;10.00;101631.00;;;;4999054;28;20282;-73
2021/01/14 02:03:00;;;;;;;0.52;0.22;;;;;10.00;101638.00;;;;5001487;28;20193;-74
2021/01/14 02:05:26;;;;;;;1.38;0.13;;;;;10.00;101635.00;;;;5010006;28;20213;-73
2021/01/14 02:08:04;;;;;;;2.92;0.35;;;;;9.90;101646.00;;;;5009828;28;20259;-73
2021/01/14 02:10:34;;;;;;;0.40;0.05;;;;;9.90;101642.00;;;;5009854;28;20299;-72
2021/01/14 02:13:10;;;;;;;1.40;0.30;;;;;9.90;101641.00;;;;4990266;28;20201;-73
2021/01/14 02:15:38;;;;;;;1.73;0.20;;;;;9.90;101648.00;;;;4998909;28;20208;-72
2021/01/14 02:18:06;;;;;;;2.00;0.30;;;;;9.90;101642.00;;;;4990225;28;20590;-73
2021/01/14 02:20:34;;;;;;;1.27;0.38;;;;;9.80;101640.00;;;;4990457;28;20229;-73
2021/01/14 02:23:06;;;;;;;1.63;0.20;;;;;9.80;101652.00;;;;5008183;28;20205;-73
2021/01/14 02:25:43;;;;;;;1.15;0.40;;;;;9.80;101654.00;;;;5010275;28;20193;-73
2021/01/14 02:28:11;;;;;;;2.30;0.10;;;;;9.80;101643.00;;;;5009469;28;20437;-72
2021/01/14 02:30:37;;;;;;;1.75;0.40;;;;;9.80;101657.00;;;;5007990;28;20651;-73
2021/01/14 02:33:04;;;;;;;3.05;0.20;;;;;9.70;101655.00;;;;4994047;28;20198;-72
2021/01/14 02:35:31;;;;;;;1.27;0.30;;;;;9.70;101652.00;;;;4997060;28;20197;-72
2021/01/14 02:37:57;;;;;;;0.40;0.15;;;;;9.70;101655.00;;;;5005463;28;20666;-73
2021/01/14 02:40:24;;;;;;;4.50;0.50;;;;;9.70;101661.00;;;;5009542;28;20224;-72
2021/01/14 02:42:52;;;;;;;0.40;0.25;;;;;9.70;101659.00;;;;5008478;28;20205;-73
2021/01/14 02:45:18;;;;;;;1.17;0.20;;;;;9.70;101656.00;;;;5009323;28;20293;-73
2021/01/14 02:47:47;;;;;;;0.65;0.32;;;;;9.70;101654.00;;;;4991086;28;20205;-73
2021/01/14 02:50:14;;;;;;;1.95;0.20;;;;;9.60;101652.00;;;;4995867;28;20224;-72
2021/01/14 02:52:44;;;;;;;0.90;0.52;;;;;9.60;101657.00;;;;4993693;28;20216;-73
2021/01/14 02:55:13;;;;;;;3.15;0.55;;;;;9.60;101671.00;;;;5008083;28;20201;-72
2021/01/14 02:57:41;;;;;;;2.22;0.47;;;;;9.60;101677.00;;;;5008712;28;20204;-73
2021/01/14 03:00:09;;;;;;;1.55;0.32;;;;;9.60;101674.00;;;;5008690;28;20236;-73
2021/01/14 03:02:36;;;;;;;1.17;0.20;;;;;9.60;101670.00;;;;5004891;28;20197;-73
2021/01/14 03:05:03;;;;;;;1.33;0.43;;;;;9.60;101673.00;;;;5009140;28;20255;-73
2021/01/14 03:07:30;;;;;;;0.30;0.13;;;;;9.60;101675.00;;;;4994652;28;20213;-72
2021/01/14 03:09:57;;;;;;;2.08;0.52;;;;;9.50;101678.00;;;;5004989;28;20209;-73
2021/01/14 03:12:24;;;;;;;0.52;0.20;;;;;9.50;101675.00;;;;5008129;28;20251;-73
2021/01/14 03:14:50;;;;;;;1.52;0.50;;;;;9.50;101677.00;;;;5008397;28;20617;-72
2021/01/14 03:17:18;;;;;;;2.47;0.57;;;;;9.50;101675.00;;;;4993302;28;20260;-74
2021/01/14 03:19:44;;;;;;;2.80;0.35;;;;;9.50;101672.00;;;;4996589;28;20300;-73
2021/01/14 03:22:11;;;;;;;3.92;0.65;;;;;9.40;101672.00;;;;5007161;28;20484;-73
2021/01/14 03:24:39;;;;;;;1.10;0.22;;;;;9.40;101681.00;;;;4993515;28;20201;-72
2021/01/14 03:27:06;;;;;;;0.73;0.25;;;;;9.40;101675.00;;;;4996700;28;20581;-73
2021/01/14 03:29:33;;;;;;;3.00;0.20;;;;;9.40;101681.00;;;;5008292;28;20217;-73
2021/01/14 03:32:01;;;;;;;0.75;0.20;;;;;9.30;101679.00;;;;5004009;28;20201;-73
2021/01/14 03:34:29;;;;;;;4.78;0.25;;;;;9.30;101671.00;;;;5008609;28;20201;-72
2021/01/14 03:37:00;;;;;;;0.75;0.20;;;;;9.30;101670.00;;;;5007865;28;20774;-72
2021/01/14 03:39:29;;;;;;;1.50;0.20;;;;;9.30;101685.00;;;;5008813;28;20734;-73
2021/01/14 03:41:57;;;;;;;1.98;0.60;;;;;9.30;101676.00;;;;5002931;28;20264;-73
2021/01/14 03:44:24;;;;;;;1.95;0.38;;;;;9.30;101669.00;;;;5008441;28;20197;-73
2021/01/14 03:46:52;;;;;;;0.88;0.57;;;;;9.20;101668.00;;;;4996699;28;20198;-73
2021/01/14 03:49:19;;;;;;;1.33;0.40;;;;;9.20;101681.00;;;;5005566;28;20583;-72
2021/01/14 03:51:48;;;;;;;4.28;0.40;;;;;9.20;101677.00;;;;5008544;28;20797;-72
2021/01/14 03:54:15;;;;;;;0.82;0.20;;;;;9.20;101682.00;;;;5007443;28;20197;-72
2021/01/14 03:56:42;;;;;;;1.98;0.60;;;;;9.10;101687.00;;;;4991994;28;20206;-73
2021/01/14 03:59:09;;;;;;;1.15;0.30;;;;;9.10;101692.00;;;;5008359;28;20729;-72
2021/01/14 04:01:36;;;;;;;1.85;0.30;;;;;9.10;101686.00;;;;5007046;28;20224;-73
2021/01/14 04:04:03;;;;;;;1.10;0.20;;;;;9.10;101692.00;;;;5008751;28;20216;-72
2021/01/14 04:06:32;;;;;;;1.30;0.40;;;;;9.10;101695.00;;;;5009017;28;20640;-72
2021/01/14 04:09:00;;;;;;;2.33;0.20;;;;;9.00;101702.00;;;;5007866;28;20200;-73
2021/01/14 04:11:27;;;;;;;2.35;0.20;;;;;9.00;101694.00;;;;5009112;28;20220;-73
2021/01/14 04:13:54;;;;;;;1.95;0.30;;;;;9.00;101693.00;;;;5007454;28;20205;-73
2021/01/14 04:16:21;;;;;;;0.75;0.10;;;;;9.00;101698.00;;;;4990158;28;20197;-73
2021/01/14 04:18:48;;;;;;;1.95;0.17;;;;;9.00;101700.00;;;;4989525;28;20205;-72
2021/01/14 04:21:15;;;;;;;1.67;0.30;;;;;9.00;101692.00;;;;4992424;28;20694;-72
2021/01/14 04:23:43;;;;;;;1.00;0.30;;;;;9.00;101700.00;;;;5001934;28;20198;-73
2021/01/14 04:26:11;;;;;;;0.20;0.10;;;;;9.00;101689.00;;;;4991129;28;20411;-73
2021/01/14 04:28:39;;;;;;;0.77;0.10;;;;;9.00;101686.00;;;;5008398;28;20205;-72
2021/01/14 04:31:06;;;;;;;2.97;0.20;;;;;8.90;101684.00;;;;5007042;28;20663;-73
2021/01/14 04:33:33;;;;;;;1.58;0.47;;;;;8.90;101683.00;;;;5008549;28;20208;-73
2021/01/14 04:36:01;;;;;;;2.13;0.30;;;;;8.90;101687.00;;;;5011726;28;20254;-73
2021/01/14 04:38:29;;;;;;;0.70;0.10;;;;;8.90;101684.00;;;;5006968;28;20208;-73
2021/01/14 04:40:57;;;;;;;1.52;0.40;;;;;8.90;101680.00;;;;5007410;28;20845;-73
2021/01/14 04:43:26;;;;;;;2.63;0.20;;;;;8.90;101685.00;;;;5009455;28;20247;-73
2021/01/14 04:45:55;;;;;;;1.08;0.30;;;;;8.90;101683.00;;;;5012154;28;20196;-72
2021/01/14 04:48:22;;;;;;;1.35;0.22;;;;;8.90;101686.00;;;;5010648;28;20748;-72
2021/01/14 04:50:51;;;;;;;1.38;0.30;;;;;8.80;101693.00;;;;5012422;28;20208;-73
2021/01/14 04:53:21;;;;;;;1.55;0.28;;;;;8.80;101690.00;;;;5012324;28;20193;-72
2021/01/14 04:55:48;;;;;;;1.15;0.50;;;;;8.80;101699.00;;;;5011844;28;20711;-73
2021/01/14 04:58:17;;;;;;;1.48;0.40;;;;;8.80;101695.00;;;;5011128;28;20237;-72
2021/01/14 05:00:50;;;;;;;2.80;0.32;;;;;8.80;101697.00;;;;5006485;28;20221;-73
2021/01/14 05:03:22;;;;;;;0.55;0.30;;;;;8.80;101696.00;;;;5008501;28;20193;-72
2021/01/14 05:05:50;;;;;;;0.63;0.20;;;;;8.80;101700.00;;;;5011164;28;20221;-73
2021/01/14 05:08:18;;;;;;;2.35;0.38;;;;;8.80;101700.00;;;;5005299;28;20204;-73
2021/01/14 05:10:45;;;;;;;0.77;0.45;;;;;8.80;101707.00;;;;5011731;28;20259;-73
2021/01/14 05:13:12;;;;;;;1.15;0.20;;;;;8.80;101697.00;;;;5010945;28;20737;-73
2021/01/14 05:15:40;;;;;;;0.30;0.10;;;;;8.80;101713.00;;;;5008011;28;20198;-73
2021/01/14 05:18:07;;;;;;;1.17;0.25;;;;;8.80;101704.00;;;;5006702;28;20193;-73
2021/01/14 05:20:34;;;;;;;2.33;0.25;;;;;8.80;101703.00;;;;5011697;28;20256;-72
2021/01/14 05:23:03;;;;;;;0.60;0.40;;;;;8.80;101706.00;;;;5009790;28;20209;-73
2021/01/14 05:25:31;;;;;;;0.75;0.35;;;;;8.80;101714.00;;;;5011216;28;20951;-72
2021/01/14 05:28:10;;;;;;;0.75;0.17;;;;;8.70;101716.00;;;;5011510;28;20201;-73
2021/01/14 05:30:37;;;;;;;0.85;0.20;;;;;8.80;101723.00;;;;5007347;28;20683;-72
2021/01/14 05:33:04;;;;;;;0.93;0.10;;;;;8.80;101729.00;;;;5006156;28;20204;-73
2021/01/14 05:35:32;;;;;;;1.98;0.08;;;;;8.80;101722.00;;;;5010320;28;20197;-73
2021/01/14 05:38:03;;;;;;;1.55;0.10;;;;;8.80;101729.00;;;;5007204;28;20200;-73
2021/01/14 05:40:31;;;;;;;1.52;0.30;;;;;8.80;101728.00;;;;5010264;28;20264;-73
2021/01/14 05:43:05;;;;;;;1.75;0.10;;;;;8.80;101723.00;;;;5001649;28;20208;-73
2021/01/14 05:45:32;;;;;;;3.35;0.17;;;;;8.80;101726.00;;;;5007858;28;20259;-73
2021/01/14 05:48:09;;;;;;;0.93;0.30;;;;;8.70;101738.00;;;;4993379;28;20205;-73
2021/01/14 05:50:45;;;;;;;1.27;0.50;;;;;8.80;101742.00;;;;5011024;28;20342;-73
2021/01/14 05:53:17;;;;;;;2.53;0.35;;;;;8.80;101734.00;;;;5008944;28;20279;-73
2021/01/14 05:55:45;;;;;;;1.08;0.45;;;;;8.80;101742.00;;;;5007450;28;20205;-73
2021/01/14 05:58:18;;;;;;;0.63;0.30;;;;;8.80;101740.00;;;;5005821;28;20265;-72
2021/01/14 06:00:45;;;;;;;1.67;0.40;;;;;8.80;101741.00;;;;5010695;28;20223;-73
2021/01/14 06:03:26;;;;;;;0.98;0.40;;;;;8.70;101739.00;;;;5005728;28;20201;-72
2021/01/14 06:05:54;;;;;;;3.35;0.57;;;;;8.80;101745.00;;;;4998914;28;20208;-73
2021/01/14 06:08:26;;;;;;;2.95;0.40;;;;;8.80;101744.00;;;;5010211;28;20209;-73
2021/01/14 06:10:53;;;;;;;2.30;0.38;;;;;8.80;101740.00;;;;5010645;28;20197;-73
2021/01/14 06:13:37;;;;;;;2.85;0.50;;;;;8.80;101741.00;;;;5005830;28;20240;-73
2021/01/14 06:16:04;;;;;;;1.23;0.30;;;;;8.80;101741.00;;;;4995923;28;20620;-73
2021/01/14 06:18:31;;;;;;;0.80;0.30;;;;;8.80;101740.00;;;;4990741;28;20208;-73
2021/01/14 06:20:59;;;;;;;0.93;0.40;;;;;8.80;101747.00;;;;4990694;28;20562;-73
2021/01/14 06:23:25;;;;;;;2.35;0.30;;;;;8.80;101742.00;;;;5008160;28;20256;-73
2021/01/14 06:25:54;;;;;;;3.22;0.30;;;;;8.80;101744.00;;;;5005692;28;20205;-73
2021/01/14 06:28:22;;;;;;;0.40;0.20;;;;;8.80;101743.00;;;;4990854;28;20213;-74
2021/01/14 06:31:01;;;;;;;2.35;0.20;;;;;8.80;101742.00;;;;4993600;28;20228;-73
2021/01/14 06:33:29;;;;;;;1.85;0.20;;;;;8.80;101745.00;;;;4990570;28;20201;-72
2021/01/14 06:36:07;;;;;;;1.02;0.30;;;;;8.70;101750.00;;;;4991162;28;20205;-73
2021/01/14 06:38:43;;;;;;;2.97;0.30;;;;;8.70;101749.00;;;;5003973;28;20208;-73
2021/01/14 06:41:16;;;;;;;0.90;0.40;;;;;8.80;101751.00;;;;5008569;28;20220;-72
2021/01/14 06:43:44;;;;;;;0.40;0.10;;;;;8.80;101756.00;;;;5008923;28;20263;-73
2021/01/14 06:46:16;;;;;;;1.48;0.50;;;;;8.80;101767.00;;;;5002685;28;20583;-72
2021/01/14 06:48:59;;;;;;;3.92;0.95;;;;;8.80;101759.00;;;;5006185;28;20657;-73
2021/01/14 06:51:42;;;;;;;2.47;1.25;;;;;8.70;101762.00;;;;5008769;28;20201;-72
2021/01/14 06:54:11;;;;;;;6.57;2.25;;;;;8.80;101765.00;;;;5003376;28;20689;-73
2021/01/14 06:56:47;;;;;;;5.05;2.28;;;;;8.70;101768.00;;;;5008141;28;20228;-72
2021/01/14 06:59:16;;;;;;;3.33;1.85;;;;;8.80;101777.00;;;;4991097;28;20319;-73
2021/01/14 07:01:58;;;;;;;6.78;1.92;;;;;8.80;101777.00;;;;4989652;28;20320;-73
2021/01/14 07:04:36;;;;;;;4.82;2.10;;;;;8.70;101785.00;;;;4995496;28;20725;-73
2021/01/14 07:07:27;;;;;;;5.72;1.90;;;;;8.70;101779.00;;;;5009080;28;20209;-73
2021/01/14 07:10:05;;;;;;;6.18;2.10;;;;;8.70;101785.00;;;;5009124;28;20224;-72
2021/01/14 07:12:34;;;;;;;4.20;1.35;;;;;8.80;101785.00;;;;5005752;28;20215;-72
2021/01/14 07:15:07;;;;;;;4.70;1.60;;;;;8.70;101794.00;;;;5005578;28;20217;-72
2021/01/14 07:17:37;;;;;;;2.83;1.23;;;;;8.80;101793.00;;;;5002323;28;20201;-72
2021/01/14 07:20:08;;;;;;;4.20;1.08;;;;;8.80;101800.00;;;;5006006;28;20270;-72
2021/01/14 07:22:44;;;;;;;2.35;0.88;;;;;8.80;101798.00;;;;5008204;28;20201;-72
2021/01/14 07:25:13;;;;;;;4.18;1.05;;;;;8.80;101805.00;;;;5007215;28;20196;-73
2021/01/14 07:27:42;;;;;;;2.03;1.00;;;;;8.80;101804.00;;;;5001475;28;20194;-72
2021/01/14 07:30:10;;;;;;;2.80;1.40;;;;;8.80;101796.00;;;;4991917;28;20289;-72
2021/01/14 07:32:57;;;;;;;2.72;0.80;;;;;8.70;101791.00;;;;5009489;28;20204;-72
2021/01/14 07:35:44;;;;;;;3.97;0.60;;;;;8.70;101797.00;;;;5008092;28;20207;-72
2021/01/14 07:38:13;;;;;;;1.23;0.45;;;;;8.70;101807.00;;;;5007749;28;20255;-72
2021/01/14 07:40:41;;;;;;;3.15;0.40;;;;;8.70;101809.00;;;;5009284;28;20228;-72
2021/01/14 07:43:09;;;;;;;2.60;0.75;;;;;8.70;101805.00;;;;5006676;28;20252;-73
2021/01/14 07:45:36;;;;;;;0.52;0.20;;;;;8.70;101810.00;;;;5006093;28;20812;-73
2021/01/14 07:48:17;;;;;;;2.22;0.60;;;;;8.70;101812.00;;;;5008789;28;20201;-73
2021/01/14 07:50:52;;;;;;;3.22;0.38;;;;;8.70;101802.00;;;;5009280;28;20595;-74
2021/01/14 07:53:20;;;;;;;2.53;0.63;;;;;8.70;101812.00;;;;5006030;28;20288;-73
2021/01/14 07:55:47;;;;;;;2.30;0.60;;;;;8.70;101817.00;;;;5000450;28;20206;-73
2021/01/14 07:58:24;;;;;;;3.45;0.60;;;;;8.60;101820.00;;;;4996904;28;20237;-73
2021/01/14 08:01:02;;;;;;;0.55;0.28;;;;;8.60;101814.00;;;;5003124;28;20229;-73
2021/01/14 08:03:34;;;;;;;1.33;0.35;;;;;8.70;101820.00;;;;4989639;28;20201;-73
2021/01/14 08:06:15;;;;;;;1.73;0.40;;;;;8.70;101828.00;;;;4997823;28;20259;-73
2021/01/14 08:08:54;;;;;;;1.88;0.50;;;;;8.70;101832.00;;;;5010655;28;20235;-73
2021/01/14 08:11:24;;;;;;;1.17;0.30;;;;;8.70;101833.00;;;;5008311;28;20655;-73
2021/01/14 08:14:21;;;;;;;1.75;0.38;;;;;8.60;101841.00;;;;5005331;28;20204;-74
2021/01/14 08:16:49;;;;;;;0.88;0.25;;;;;8.70;101852.00;;;;5008796;28;20243;-73
2021/01/14 08:19:18;;;;;;;1.15;0.40;;;;;8.70;101854.00;;;;5013220;28;20203;-74
2021/01/14 08:21:47;;;;;;;0.70;0.40;;;;;8.70;101855.00;;;;5006719;28;20591;-74
2021/01/14 08:24:36;;;;;;;1.75;0.50;;;;;8.70;101838.00;;;;5011847;28;20197;-73
2021/01/14 08:27:05;;;;;;;2.75;0.40;;;;;8.70;101844.00;;;;5011113;28;20734;-74
2021/01/14 08:29:34;;;;;;;0.88;0.47;;;;;8.70;101852.00;;;;5011596;28;20213;-74
2021/01/14 08:32:02;;;;;;;0.70;0.40;;;;;8.80;101861.00;;;;5010993;28;20200;-74
2021/01/14 08:34:29;;;;;;;2.53;0.30;;;;;8.80;101852.00;;;;5011931;28;20581;-74
2021/01/14 08:36:57;;;;;;;2.97;0.82;;;;;8.80;101852.00;;;;5011619;28;20216;-74
2021/01/14 08:39:25;;;;;;;2.55;0.55;;;;;8.80;101855.00;;;;5011364;28;20714;-74
2021/01/14 08:41:53;;;;;;;3.63;0.40;;;;;8.80;101852.00;;;;5011694;28;20228;-73
2021/01/14 08:44:29;;;;;;;1.23;0.68;;;;;8.80;101858.00;;;;5011589;28;20347;-73
2021/01/14 08:46:56;;;;;;;4.50;1.27;;;;;8.80;101869.00;;;;5009491;28;20280;-73
2021/01/14 08:49:22;;;;;;;2.03;0.77;;;;;8.80;101870.00;;;;5002481;28;20221;-73
2021/01/14 08:51:49;;;;;;;1.35;0.70;;;;;8.90;101859.00;;;;5011867;28;20201;-74
2021/01/14 08:54:16;;;;;;;1.35;0.63;;;;;8.90;101863.00;;;;5011625;28;20204;-73
2021/01/14 08:56:43;;;;;;;3.50;1.10;;;;;8.90;101863.00;;;;5011921;28;20543;-74
2021/01/14 08:59:16;;;;;;;3.08;1.45;;;;;8.90;101874.00;;;;4999246;28;20229;-74
2021/01/14 09:01:43;;;;;;;2.65;0.90;;;;;8.90;101874.00;;;;5008643;28;20227;-74
2021/01/14 09:04:10;;;;;;;4.95;0.90;;;;;9.00;101870.00;;;;5010497;28;20217;-74
2021/01/14 09:06:39;;;;;;;1.80;0.80;;;;;9.00;101872.00;;;;5010682;28;20224;-74
2021/01/14 09:09:07;;;;;;;1.75;0.60;;;;;9.00;101878.00;;;;5010616;28;20211;-74
2021/01/14 09:11:35;;;;;;;2.17;0.85;;;;;9.00;101870.00;;;;5008436;28;20803;-74
2021/01/14 09:14:06;;;;;;;1.15;0.82;;;;;9.00;101871.00;;;;5008994;28;20339;-74
2021/01/14 09:16:36;;;;;;;1.60;0.70;;;;;9.00;101872.00;;;;5011169;28;20198;-74
2021/01/14 09:19:12;;;;;;;1.42;0.70;;;;;9.00;101870.00;;;;5003491;28;20208;-74
2021/01/14 09:21:39;;;;;;;4.82;0.73;;;;;9.10;101872.00;;;;5006921;28;20233;-74
2021/01/14 09:24:09;;;;;;;1.38;0.40;;;;;9.10;101878.00;;;;5010525;28;20197;-73
2021/01/14 09:26:38;;;;;;;2.78;0.50;;;;;9.10;101874.00;;;;5010016;28;20555;-73
2021/01/14 09:29:06;;;;;;;4.78;0.55;;;;;9.10;101889.00;;;;5008801;28;20674;-73
2021/01/14 09:31:34;;;;;;;4.28;0.98;;;;;9.10;101883.00;;;;4998978;28;20225;-74
2021/01/14 09:34:02;;;;;;;1.95;0.80;;;;;9.20;101887.00;;;;5002282;28;20200;-74
2021/01/14 09:36:29;;;;;;;3.22;0.77;;;;;9.20;101881.00;;;;5010391;28;20545;-74
2021/01/14 09:38:57;;;;;;;3.03;0.70;;;;;9.20;101884.00;;;;5006874;28;20655;-74
2021/01/14 09:41:29;;;;;;;3.83;0.98;;;;;9.20;101883.00;;;;5004232;28;20721;-74
2021/01/14 09:43:57;;;;;;;1.38;0.60;;;;;9.20;101883.00;;;;4998704;28;20925;-74
2021/01/14 09:46:26;;;;;;;3.30;0.88;;;;;9.20;101889.00;;;;5010030;28;20209;-74
2021/01/14 09:49:00;;;;;;;1.95;0.65;;;;;9.20;101897.00;;;;5010668;28;20197;-74
2021/01/14 09:51:27;;;;;;;2.42;1.10;;;;;9.30;101895.00;;;;5006457;28;20738;-74
2021/01/14 09:53:53;;;;;;;2.83;0.90;;;;;9.30;101882.00;;;;5001471;28;20197;-74
2021/01/14 09:56:26;;;;;;;3.20;0.47;;;;;9.30;101889.00;;;;5006789;28;20647;-74
2021/01/14 09:58:55;;;;;;;1.38;0.90;;;;;9.30;101884.00;;;;5004280;28;20275;-75
2021/01/14 10:01:27;;;;;;;1.73;0.73;;;;;9.30;101883.00;;;;5010001;28;20233;-74
2021/01/14 10:04:07;;;;;;;2.90;1.00;;;;;9.30;101880.00;;;;4996069;28;20287;-74
2021/01/14 10:06:45;;;;;;;3.25;0.88;;;;;9.30;101878.00;;;;5007009;28;20611;-74
2021/01/14 10:09:15;;;;;;;3.47;0.95;;;;;9.30;101880.00;;;;4994664;28;20201;-75
2021/01/14 10:11:43;;;;;;;1.00;0.60;;;;;9.30;101876.00;;;;4992580;28;20248;-74
2021/01/14 10:14:17;;;;;;;4.47;1.08;;;;;9.30;101887.00;;;;5006130;28;20197;-74
2021/01/14 10:16:44;;;;;;;3.10;1.08;;;;;9.40;101876.00;;;;5010248;28;20311;-74
2021/01/14 10:19:15;;;;;;;2.42;0.70;;;;;9.30;101887.00;;;;5007351;28;20244;-74
2021/01/14 10:21:43;;;;;;;1.73;0.80;;;;;9.40;101882.00;;;;5010535;28;20659;-75
2021/01/14 10:24:20;;;;;;;1.65;1.00;;;;;9.30;101880.00;;;;5008068;28;20201;-74
2021/01/14 10:26:47;;;;;;;3.08;0.80;;;;;9.40;101879.00;;;;5003780;28;20207;-74
2021/01/14 10:29:38;;;;;;;2.08;0.75;;;;;9.30;101879.00;;;;5009107;28;20263;-74
2021/01/14 10:32:06;;;;;;;7.47;1.20;;;;;9.40;101883.00;;;;4989726;28;20297;-74
2021/01/14 10:34:45;;;;;;;2.45;0.80;;;;;9.30;101870.00;;;;5006753;28;20189;-74
2021/01/14 10:37:19;;;;;;;1.73;0.73;;;;;9.40;101870.00;;;;5009821;28;20204;-74
2021/01/14 10:39:46;;;;;;;3.42;1.30;;;;;9.50;101858.00;;;;5010538;28;20204;-74
2021/01/14 10:42:35;;;;;;;3.03;1.25;;;;;9.40;101859.00;;;;5009406;28;20227;-74
2021/01/14 10:45:04;;;;;;;1.92;1.02;;;;;9.50;101853.00;;;;5007070;28;20209;-75
2021/01/14 10:47:31;;;;;;;2.05;1.17;;;;;9.50;101856.00;;;;5005037;28;20216;-74
2021/01/14 10:49:59;;;;;;;3.78;1.15;;;;;9.60;101858.00;;;;5009419;28;20570;-74
2021/01/14 10:52:26;;;;;;;6.30;1.10;;;;;9.60;101847.00;;;;5009673;28;20216;-74
2021/01/14 10:55:00;;;;;;;3.47;1.20;;;;;9.60;101859.00;;;;5009907;28;20224;-74
2021/01/14 10:57:49;;;;;;;2.78;1.17;;;;;9.60;101857.00;;;;5009398;28;20205;-74
2021/01/14 11:00:17;;;;;;;3.60;1.42;;;;;9.70;101858.00;;;;5009042;28;20674;-74
2021/01/14 11:02:45;;;;;;;2.05;1.05;;;;;9.70;101863.00;;;;5009353;28;20228;-76
2021/01/14 11:05:13;;;;;;;2.40;1.10;;;;;9.80;101855.00;;;;5008373;28;20235;-74
2021/01/14 11:07:40;;;;;;;4.50;1.15;;;;;9.80;101864.00;;;;5008351;28;20251;-74
2021/01/14 11:10:08;;;;;;;4.60;1.13;;;;;9.80;101860.00;;;;5009105;28;20193;-74
2021/01/14 11:12:55;;;;;;;2.92;1.70;;;;;9.80;101854.00;;;;5006409;28;20591;-74
2021/01/14 11:15:22;;;;;;;2.67;1.15;;;;;9.80;101850.00;;;;4997272;28;20946;-75
2021/01/14 11:17:48;;;;;;;2.22;1.20;;;;;9.90;101849.00;;;;4989378;28;20205;-74
2021/01/14 11:20:16;;;;;;;1.83;0.90;;;;;9.90;101848.00;;;;4996567;28;20204;-74
2021/01/14 11:22:43;;;;;;;2.10;1.05;;;;;9.90;101831.00;;;;5006674;28;20252;-74
2021/01/14 11:25:10;;;;;;;2.17;1.20;;;;;9.90;101833.00;;;;5008861;28;20199;-75
2021/01/14 11:27:37;;;;;;;6.85;1.90;;;;;9.90;101840.00;;;;5000916;28;20198;-74
2021/01/14 11:30:04;;;;;;;4.78;1.60;;;;;9.90;101835.00;;;;4989967;28;20639;-74
2021/01/14 11:32:33;;;;;;;4.40;1.50;;;;;9.90;101845.00;;;;4991013;28;20680;-74
2021/01/14 11:34:59;;;;;;;3.72;1.42;;;;;10.00;101835.00;;;;5008417;28;20670;-74
2021/01/14 11:37:27;;;;;;;2.38;1.35;;;;;10.00;101835.00;;;;4998353;28;20201;-74
2021/01/14 11:39:53;;;;;;;3.75;1.40;;;;;10.00;101837.00;;;;5001293;28;20201;-75
2021/01/14 11:42:20;;;;;;;1.58;0.98;;;;;10.10;101831.00;;;;4996272;28;20239;-74
2021/01/14 11:44:47;;;;;;;3.80;1.05;;;;;10.10;101839.00;;;;5007863;28;20192;-74
2021/01/14 11:47:14;;;;;;;2.65;1.40;;;;;10.10;101824.00;;;;5008456;28;20197;-75
2021/01/14 11:49:40;;;;;;;2.22;1.40;;;;;10.10;101827.00;;;;5003882;28;20667;-74
2021/01/14 11:52:07;;;;;;;2.15;1.27;;;;;10.10;101823.00;;;;5008849;28;20196;-74
2021/01/14 11:54:35;;;;;;;4.50;1.25;;;;;10.10;101823.00;;;;4998653;28;20559;-74
2021/01/14 11:57:02;;;;;;;1.90;1.20;;;;;10.20;101820.00;;;;5009056;28;20663;-75
2021/01/14 11:59:28;;;;;;;3.10;1.23;;;;;10.20;101823.00;;;;5009542;28;20372;-75
2021/01/14 12:01:56;;;;;;;1.92;1.10;;;;;10.20;101819.00;;;;5008373;28;20232;-76
2021/01/14 12:04:23;;;;;;;2.47;1.63;;;;;10.20;101815.00;;;;5007155;28;20224;-75
2021/01/14 12:06:53;;;;;;;2.30;0.95;;;;;10.20;101810.00;;;;5001003;28;20213;-74
2021/01/14 12:09:21;;;;;;;2.35;1.67;;;;;10.20;101814.00;;;;5008370;28;20211;-74
2021/01/14 12:11:52;;;;;;;2.35;1.08;;;;;10.20;101814.00;;;;4992351;28;20220;-74
2021/01/14 12:14:19;;;;;;;3.55;1.33;;;;;10.30;101808.00;;;;4991840;28;20193;-75
2021/01/14 12:16:46;;;;;;;3.70;1.35;;;;;10.30;101802.00;;;;5004587;28;20262;-74
2021/01/14 12:19:12;;;;;;;2.63;1.00;;;;;10.30;101804.00;;;;4996917;28;20225;-74
2021/01/14 12:21:39;;;;;;;2.58;1.17;;;;;10.30;101806.00;;;;4990853;28;20225;-74
2021/01/14 12:24:06;;;;;;;4.38;1.20;;;;;10.40;101806.00;;;;5004434;28;20251;-74
2021/01/14 12:26:33;;;;;;;3.10;1.42;;;;;10.40;101804.00;;;;5006956;28;20224;-75
2021/01/14 12:29:01;;;;;;;4.50;1.80;;;;;10.40;101800.00;;;;5006342;28;20666;-74
2021/01/14 12:31:32;;;;;;;2.40;1.30;;;;;10.50;101795.00;;;;5005280;28;20197;-74